Time;durP1;ratioP1;P1;durP2;ratioP2;P2;SDS_P1;SDS_P2;PMS_P1;PMS_P2;Temp;Humidity;BMP_temperature;BMP_pressure;BME280_temperature;BME280_humidity;BME280_pressure;Samples;Min_cycle;Max_cycle;Signal;HPM_P1;HPM_P2
2022/07/28 00:01:05;;;;;;;1.90;0.90;;;18.10;82.00;;;;;;5034809;28;20040;-64
2022/07/28 00:03:31;;;;;;;5.53;1.40;;;18.10;81.20;;;;;;5034894;28;20030;-65
2022/07/28 00:05:57;;;;;;;4.97;1.08;;;18.10;81.30;;;;;;5034664;28;20033;-65
2022/07/28 00:08:24;;;;;;;2.38;0.90;;;18.10;81.40;;;;;;5034610;28;20153;-65
2022/07/28 00:10:50;;;;;;;4.22;1.00;;;18.10;81.50;;;;;;5034630;28;20477;-65
2022/07/28 00:13:16;;;;;;;3.35;0.80;;;18.10;81.50;;;;;;5034459;28;20071;-65
2022/07/28 00:15:42;;;;;;;4.00;1.02;;;18.00;81.50;;;;;;5034582;28;20163;-64
2022/07/28 00:18:08;;;;;;;4.07;1.00;;;18.00;81.60;;;;;;5034340;28;20025;-66
2022/07/28 00:20:34;;;;;;;3.40;1.08;;;18.00;81.60;;;;;;5034183;28;20446;-65
2022/07/28 00:23:00;;;;;;;3.17;0.90;;;18.00;82.40;;;;;;5056624;22;20450;-84
2022/07/28 00:25:27;;;;;;;5.30;0.80;;;18.00;81.80;;;;;;5016688;28;20104;-84
2022/07/28 00:27:52;;;;;;;3.88;0.70;;;17.90;81.80;;;;;;5033859;28;20048;-84
2022/07/28 00:30:18;;;;;;;1.65;0.93;;;17.90;82.00;;;;;;4999596;28;20056;-84
2022/07/28 00:32:45;;;;;;;3.47;1.10;;;17.90;82.10;;;;;;5034129;28;20521;-85
2022/07/28 00:35:11;;;;;;;2.75;0.68;;;17.90;82.10;;;;;;5033812;28;20076;-84
2022/07/28 00:37:38;;;;;;;2.67;0.90;;;17.90;82.20;;;;;;5033574;28;20437;-84
2022/07/28 00:40:04;;;;;;;3.08;1.10;;;17.90;82.30;;;;;;5033482;28;20037;-84
2022/07/28 00:42:30;;;;;;;3.78;1.02;;;17.90;82.30;;;;;;5033541;28;20067;-84
2022/07/28 00:44:55;;;;;;;2.55;1.00;;;17.90;83.00;;;;;;5015941;28;20513;-85
2022/07/28 00:47:21;;;;;;;3.30;1.00;;;17.90;82.40;;;;;;5033442;28;20029;-84
2022/07/28 00:49:49;;;;;;;3.38;0.98;;;17.90;82.50;;;;;;5033561;28;20053;-85
2022/07/28 00:52:16;;;;;;;2.38;0.77;;;17.80;82.60;;;;;;5033643;28;20021;-84
2022/07/28 00:54:42;;;;;;;2.83;1.10;;;17.90;82.80;;;;;;5033746;28;20496;-84
2022/07/28 00:57:08;;;;;;;5.18;1.20;;;17.80;82.70;;;;;;5033312;28;20072;-84
2022/07/28 00:59:34;;;;;;;2.15;0.90;;;17.90;82.80;;;;;;5015351;28;20041;-84
2022/07/28 01:02:00;;;;;;;3.33;1.10;;;17.90;82.90;;;;;;5033155;28;20124;-85
2022/07/28 01:04:27;;;;;;;2.83;0.98;;;17.80;83.00;;;;;;5033239;28;20445;-84
2022/07/28 01:07:07;;;;;;;3.55;1.17;;;17.80;83.20;;;;;;5033226;28;20024;-85
2022/07/28 01:09:57;;;;;;;4.38;1.10;;;17.80;83.30;;;;;;5014816;28;20072;-84
2022/07/28 01:12:32;;;;;;;3.70;1.10;;;17.80;83.40;;;;;;5033004;28;20079;-84
2022/07/28 01:15:26;;;;;;;4.50;1.00;;;17.80;83.50;;;;;;5033163;28;20040;-85
2022/07/28 01:18:19;;;;;;;3.53;0.90;;;17.80;83.50;;;;;;4998878;28;20470;-84
2022/07/28 01:20:59;;;;;;;3.08;1.05;;;17.70;83.40;;;;;;5014962;28;20103;-84
2022/07/28 01:23:31;;;;;;;3.08;1.02;;;17.70;83.50;;;;;;5032757;28;20025;-84
2022/07/28 01:26:12;;;;;;;3.85;1.02;;;17.70;83.70;;;;;;5033001;28;20025;-84
2022/07/28 01:28:38;;;;;;;2.33;0.80;;;17.70;83.80;;;;;;4998641;28;20044;-84
2022/07/28 01:31:06;;;;;;;3.97;1.25;;;17.70;83.90;;;;;;5032693;28;20037;-85
2022/07/28 01:33:44;;;;;;;4.53;1.30;;;17.70;84.00;;;;;;5032609;28;20040;-84
2022/07/28 01:36:27;;;;;;;5.43;1.30;;;17.70;84.20;;;;;;5032565;28;20030;-85
2022/07/28 01:38:54;;;;;;;3.38;1.10;;;17.70;84.20;;;;;;5032556;28;20037;-84
2022/07/28 01:41:28;;;;;;;4.40;1.00;;;17.60;84.30;;;;;;5032246;28;20040;-85
2022/07/28 01:44:04;;;;;;;5.13;1.20;;;17.60;84.40;;;;;;5032656;28;20029;-85
2022/07/28 01:46:32;;;;;;;5.47;1.10;;;17.50;84.50;;;;;;5032381;28;20089;-84
2022/07/28 01:48:59;;;;;;;2.88;0.90;;;17.50;84.50;;;;;;5032331;28;20025;-85
2022/07/28 01:51:28;;;;;;;3.92;0.90;;;17.50;84.60;;;;;;5032342;28;20034;-85
2022/07/28 01:53:57;;;;;;;4.80;1.02;;;17.50;84.50;;;;;;5014588;28;20034;-85
2022/07/28 01:56:25;;;;;;;6.22;1.10;;;17.50;84.50;;;;;;4998010;28;20037;-84
2022/07/28 01:58:54;;;;;;;3.58;1.15;;;17.40;84.60;;;;;;5032350;28;20033;-85
2022/07/28 02:01:24;;;;;;;6.10;1.25;;;17.50;84.90;;;;;;5032213;28;20159;-85
2022/07/28 02:03:51;;;;;;;5.00;1.05;;;17.40;85.00;;;;;;5032220;28;20056;-84
2022/07/28 02:06:20;;;;;;;4.60;1.00;;;17.40;85.00;;;;;;5014175;28;20037;-84
2022/07/28 02:08:47;;;;;;;6.53;1.00;;;17.40;85.00;;;;;;5014215;28;20121;-85
2022/07/28 02:13:58;;;;;;;3.90;1.20;;;17.40;85.30;;;;;;5014143;28;20079;-85
2022/07/28 02:16:26;;;;;;;3.65;1.17;;;17.40;85.30;;;;;;5031796;28;20108;-85
2022/07/28 02:18:54;;;;;;;4.93;1.33;;;17.40;85.40;;;;;;5031625;28;20040;-85
2022/07/28 02:21:23;;;;;;;3.92;0.90;;;17.30;85.40;;;;;;5030776;28;20029;-85
2022/07/28 02:23:50;;;;;;;4.35;1.10;;;17.30;85.50;;;;;;5031669;28;20073;-85
2022/07/28 02:26:17;;;;;;;3.75;1.02;;;17.30;85.50;;;;;;5031975;28;20160;-85
2022/07/28 02:28:45;;;;;;;3.75;1.20;;;17.30;85.70;;;;;;5031537;28;20026;-85
2022/07/28 02:31:27;;;;;;;7.40;1.50;;;17.30;85.90;;;;;;5014186;28;20055;-85
2022/07/28 02:33:57;;;;;;;3.85;1.10;;;17.20;86.00;;;;;;5013728;28;20033;-85
2022/07/28 02:36:33;;;;;;;3.55;1.08;;;17.20;86.10;;;;;;5013908;28;20475;-85
2022/07/28 02:39:14;;;;;;;4.65;1.10;;;17.20;86.20;;;;;;5013811;28;20037;-85
2022/07/28 02:41:41;;;;;;;6.03;1.23;;;17.20;86.30;;;;;;5031832;28;20152;-85
2022/07/28 02:44:13;;;;;;;5.15;1.20;;;17.10;86.40;;;;;;5013784;28;20029;-85
2022/07/28 02:46:48;;;;;;;5.55;1.42;;;17.10;86.50;;;;;;5013568;28;20072;-85
2022/07/28 02:49:28;;;;;;;5.47;1.50;;;17.10;86.50;;;;;;5031257;28;20072;-85
2022/07/28 02:51:56;;;;;;;4.43;1.08;;;17.10;86.50;;;;;;5031313;28;20029;-84
2022/07/28 02:54:26;;;;;;;5.13;1.30;;;17.10;86.70;;;;;;5013368;28;20026;-84
2022/07/28 02:56:52;;;;;;;;;;;17.10;86.60;;;;;;5014177;28;20489;-85
2022/07/28 02:59:19;;;;;;;3.70;1.02;;;17.10;86.80;;;;;;5031004;28;19919;-85
2022/07/28 03:01:47;;;;;;;6.65;1.58;;;17.10;86.80;;;;;;5031124;28;20124;-84
2022/07/28 03:04:14;;;;;;;6.18;1.20;;;17.10;86.80;;;;;;5031113;28;20076;-84
2022/07/28 03:06:41;;;;;;;2.85;1.30;;;17.10;86.90;;;;;;5030875;28;20124;-85
2022/07/28 03:09:10;;;;;;;6.13;1.52;;;17.00;86.90;;;;;;5013166;28;20071;-84
2022/07/28 03:11:49;;;;;;;5.00;1.13;;;17.00;87.00;;;;;;5031202;28;20029;-85
2022/07/28 03:14:15;;;;;;;5.03;1.20;;;17.00;87.10;;;;;;4997005;28;20079;-85
2022/07/28 03:16:41;;;;;;;5.65;1.27;;;17.00;87.20;;;;;;5030730;28;20049;-84
2022/07/28 03:19:06;;;;;;;3.40;1.10;;;17.00;87.30;;;;;;5030980;28;20052;-84
2022/07/28 03:21:32;;;;;;;6.20;1.17;;;17.00;87.40;;;;;;5030696;28;20029;-84
2022/07/28 03:23:58;;;;;;;7.85;1.67;;;16.90;87.60;;;;;;5030715;28;20040;-84
2022/07/28 03:26:40;;;;;;;3.28;1.15;;;17.00;87.70;;;;;;5030588;28;20029;-84
2022/07/28 03:29:07;;;;;;;4.25;2.25;;;16.90;87.80;;;;;;5030771;28;20057;-84
2022/07/28 03:31:36;;;;;;;5.07;1.77;;;16.80;87.90;;;;;;5030424;28;20064;-84
2022/07/28 03:34:03;;;;;;;4.57;1.55;;;16.80;88.00;;;;;;5030671;28;20048;-85
2022/07/28 03:36:38;;;;;;;5.00;1.30;;;16.90;88.10;;;;;;5013026;28;20091;-85
2022/07/28 03:39:07;;;;;;;3.25;0.98;;;16.80;88.10;;;;;;5030709;28;20044;-84
2022/07/28 03:41:34;;;;;;;4.40;1.52;;;16.80;88.30;;;;;;5012903;28;20069;-84
2022/07/28 03:44:01;;;;;;;3.08;1.20;;;16.80;88.30;;;;;;5030658;28;20040;-84
2022/07/28 03:46:27;;;;;;;4.50;1.27;;;16.80;88.50;;;;;;4996270;28;20034;-84
2022/07/28 03:48:53;;;;;;;4.45;1.38;;;16.80;88.60;;;;;;5030513;28;20056;-84
2022/07/28 03:51:19;;;;;;;4.28;1.17;;;16.80;88.70;;;;;;5030585;28;20104;-84
2022/07/28 03:53:45;;;;;;;4.13;1.55;;;16.80;88.70;;;;;;5030742;28;20497;-84
2022/07/28 03:56:11;;;;;;;6.00;1.75;;;16.70;88.80;;;;;;5030386;28;20060;-84
2022/07/28 03:58:37;;;;;;;4.53;1.20;;;16.70;89.00;;;;;;5030268;28;20464;-84
2022/07/28 04:01:03;;;;;;;3.47;1.50;;;16.70;89.10;;;;;;5030260;28;20060;-84
2022/07/28 04:03:29;;;;;;;4.68;1.10;;;16.70;89.10;;;;;;5030407;28;20053;-84
2022/07/28 04:05:56;;;;;;;5.20;1.40;;;16.70;89.10;;;;;;5030367;28;20461;-84
2022/07/28 04:08:22;;;;;;;5.88;1.70;;;16.70;89.20;;;;;;5012702;28;20021;-84
2022/07/28 04:10:48;;;;;;;6.22;2.00;;;16.60;89.30;;;;;;5012484;28;20508;-84
2022/07/28 04:13:14;;;;;;;4.93;1.63;;;16.70;89.30;;;;;;5012631;28;20030;-84
2022/07/28 04:15:39;;;;;;;7.35;2.35;;;16.70;89.40;;;;;;5030059;28;20040;-84
2022/07/28 04:18:06;;;;;;;6.13;1.80;;;16.60;89.40;;;;;;5012605;28;20453;-84
2022/07/28 04:20:32;;;;;;;5.80;1.95;;;16.70;89.50;;;;;;5030155;28;20053;-84
2022/07/28 04:22:58;;;;;;;4.28;1.70;;;16.70;89.60;;;;;;5030179;28;20029;-84
2022/07/28 04:25:25;;;;;;;5.20;1.75;;;16.60;89.60;;;;;;5030262;28;20099;-84
2022/07/28 04:27:52;;;;;;;4.57;1.70;;;16.70;89.80;;;;;;5030017;28;20029;-84
2022/07/28 04:30:20;;;;;;;4.53;1.70;;;16.60;89.80;;;;;;5029900;28;20053;-84
2022/07/28 04:32:50;;;;;;;6.55;2.05;;;16.60;89.80;;;;;;5030272;28;20498;-85
2022/07/28 04:35:18;;;;;;;7.30;2.00;;;16.60;89.90;;;;;;5030471;28;20040;-84
2022/07/28 04:37:44;;;;;;;5.15;1.63;;;16.70;89.90;;;;;;5012306;28;20398;-84
2022/07/28 04:40:12;;;;;;;4.57;1.60;;;16.60;89.90;;;;;;4995902;28;20426;-84
2022/07/28 04:42:38;;;;;;;3.45;1.30;;;16.70;90.00;;;;;;5029957;28;20401;-84
2022/07/28 04:45:06;;;;;;;5.20;1.77;;;16.70;90.00;;;;;;5032892;28;20343;-84
2022/07/28 04:47:32;;;;;;;5.35;1.70;;;16.70;90.00;;;;;;5033639;28;20025;-84
2022/07/28 04:49:58;;;;;;;8.23;2.00;;;16.70;90.00;;;;;;5033385;28;20037;-85
2022/07/28 04:52:25;;;;;;;5.50;1.73;;;16.60;90.00;;;;;;5033535;28;20036;-85
2022/07/28 04:54:52;;;;;;;6.53;1.80;;;16.60;90.10;;;;;;5015890;28;20063;-84
2022/07/28 04:57:18;;;;;;;7.07;1.92;;;16.70;90.20;;;;;;5033263;28;20033;-84
2022/07/28 04:59:44;;;;;;;7.07;1.67;;;16.60;90.20;;;;;;5033323;28;20547;-84
2022/07/28 05:02:11;;;;;;;6.00;1.80;;;16.70;90.20;;;;;;5015535;28;20040;-84
2022/07/28 05:04:37;;;;;;;5.15;1.60;;;16.70;90.10;;;;;;5015690;28;20049;-84
2022/07/28 05:07:04;;;;;;;5.65;1.67;;;16.70;90.10;;;;;;5033247;28;20032;-84
2022/07/28 05:09:30;;;;;;;6.95;2.65;;;16.70;90.10;;;;;;5032929;28;20033;-85
2022/07/28 05:11:57;;;;;;;7.00;2.20;;;16.70;90.10;;;;;;5033399;28;20124;-85
2022/07/28 05:14:23;;;;;;;5.13;1.70;;;16.80;90.10;;;;;;5033191;28;20435;-85
2022/07/28 05:16:48;;;;;;;7.43;2.15;;;16.80;90.00;;;;;;5015234;28;20037;-85
2022/07/28 05:19:14;;;;;;;11.98;2.80;;;16.80;90.10;;;;;;5032953;28;20078;-85
2022/07/28 05:21:40;;;;;;;8.07;2.00;;;16.80;90.00;;;;;;5032745;28;20030;-85
2022/07/28 05:24:06;;;;;;;5.35;1.88;;;16.80;90.10;;;;;;5032948;28;20490;-84
2022/07/28 05:26:32;;;;;;;6.13;1.98;;;16.80;90.10;;;;;;5014904;28;20449;-85
2022/07/28 05:28:58;;;;;;;3.95;1.60;;;16.80;90.10;;;;;;5032777;28;20199;-85
2022/07/28 05:31:23;;;;;;;6.07;1.67;;;16.80;90.10;;;;;;5033134;28;20037;-85
2022/07/28 05:33:49;;;;;;;4.25;1.65;;;16.80;90.20;;;;;;5032968;28;20025;-84
2022/07/28 05:36:15;;;;;;;7.25;1.77;;;16.80;90.30;;;;;;5032727;28;20452;-84
2022/07/28 05:38:41;;;;;;;4.18;1.85;;;16.90;90.30;;;;;;5032537;28;20039;-85
2022/07/28 05:41:06;;;;;;;6.03;1.95;;;16.90;90.30;;;;;;5014739;28;20040;-85
2022/07/28 05:43:36;;;;;;;8.10;2.00;;;16.90;90.30;;;;;;5032576;28;20029;-87
2022/07/28 05:46:02;;;;;;;6.72;2.25;;;16.90;90.30;;;;;;5032574;28;20044;-86
2022/07/28 05:48:28;;;;;;;5.47;1.85;;;16.90;90.40;;;;;;5014822;28;20036;-86
2022/07/28 05:50:54;;;;;;;5.22;1.70;;;17.00;90.20;;;;;;5014583;28;20021;-85
2022/07/28 05:53:20;;;;;;;7.50;1.90;;;17.00;90.10;;;;;;5032262;28;20530;-85
2022/07/28 05:55:46;;;;;;;8.80;2.03;;;17.10;90.10;;;;;;5032038;28;20059;-85
2022/07/28 05:58:12;;;;;;;6.18;2.00;;;17.10;90.00;;;;;;5032640;28;20120;-85
2022/07/28 06:00:38;;;;;;;8.32;1.90;;;17.10;90.00;;;;;;5032248;28;20117;-85
2022/07/28 06:03:04;;;;;;;6.95;1.90;;;17.10;90.00;;;;;;5014324;28;20030;-85
2022/07/28 06:05:31;;;;;;;7.80;2.03;;;17.20;90.00;;;;;;5032139;28;20044;-85
2022/07/28 06:07:58;;;;;;;6.95;2.00;;;17.20;90.00;;;;;;5032025;28;20040;-85
2022/07/28 06:10:25;;;;;;;7.15;2.17;;;17.30;90.00;;;;;;5032811;28;20463;-85
2022/07/28 06:12:53;;;;;;;6.95;1.70;;;17.30;90.00;;;;;;5032221;28;20033;-85
2022/07/28 06:15:25;;;;;;;6.40;1.70;;;17.40;89.40;;;;;;5032224;28;20078;-85
2022/07/28 06:17:54;;;;;;;9.55;2.10;;;17.40;89.50;;;;;;4997914;28;20271;-85
2022/07/28 06:20:23;;;;;;;7.57;2.05;;;17.40;89.80;;;;;;5031548;28;20029;-85
2022/07/28 06:22:52;;;;;;;6.95;2.08;;;17.40;89.90;;;;;;5028264;22;20129;-83
2022/07/28 06:25:25;;;;;;;7.53;2.00;;;17.40;90.20;;;;;;5014339;28;20025;-83
2022/07/28 06:27:54;;;;;;;4.57;1.80;;;17.40;89.80;;;;;;5031680;28;20494;-84
2022/07/28 06:30:20;;;;;;;3.83;1.80;;;17.40;89.90;;;;;;5031546;28;20090;-85
2022/07/28 06:32:46;;;;;;;7.32;2.70;;;17.40;90.00;;;;;;5013781;28;20067;-85
2022/07/28 06:35:15;;;;;;;7.70;2.17;;;17.40;89.90;;;;;;5031404;28;20030;-84
2022/07/28 06:37:41;;;;;;;4.57;1.90;;;17.40;89.50;;;;;;5031370;28;20063;-84
2022/07/28 06:40:08;;;;;;;9.25;2.03;;;17.40;89.70;;;;;;5031271;28;20117;-84
2022/07/28 06:42:34;;;;;;;7.32;2.00;;;17.50;89.80;;;;;;5031400;28;20048;-84
2022/07/28 06:44:59;;;;;;;7.55;1.70;;;17.50;89.90;;;;;;4997409;28;20119;-85
2022/07/28 06:47:26;;;;;;;7.20;1.88;;;17.50;90.00;;;;;;5031195;28;20108;-84
2022/07/28 06:49:51;;;;;;;4.20;1.50;;;17.50;90.00;;;;;;5031039;28;20025;-84
2022/07/28 06:52:19;;;;;;;6.35;1.85;;;17.50;90.00;;;;;;5013708;28;20029;-84
2022/07/28 06:54:46;;;;;;;5.18;1.80;;;17.50;90.00;;;;;;5031218;28;20489;-85
2022/07/28 06:57:12;;;;;;;5.18;1.75;;;17.60;89.60;;;;;;5031072;28;20132;-84
2022/07/28 06:59:38;;;;;;;5.38;1.60;;;17.60;89.40;;;;;;4996924;28;20066;-84
2022/07/28 07:02:05;;;;;;;7.35;1.73;;;17.60;89.10;;;;;;5013255;28;20060;-84
2022/07/28 07:04:30;;;;;;;7.15;1.85;;;17.70;89.10;;;;;;5031060;28;20032;-84
2022/07/28 07:06:56;;;;;;;5.78;1.73;;;17.70;89.20;;;;;;5030363;28;20033;-84
2022/07/28 07:09:22;;;;;;;9.60;2.22;;;17.70;88.80;;;;;;5031187;28;20132;-85
2022/07/28 07:11:47;;;;;;;6.53;1.60;;;17.80;88.30;;;;;;5031182;28;20033;-84
2022/07/28 07:14:13;;;;;;;5.55;1.60;;;17.80;88.30;;;;;;5030844;28;20041;-84
2022/07/28 07:16:39;;;;;;;4.85;1.40;;;17.80;88.80;;;;;;5030725;28;20067;-84
2022/07/28 07:19:05;;;;;;;7.75;1.40;;;17.80;88.40;;;;;;5030705;28;20117;-84
2022/07/28 07:21:30;;;;;;;5.25;1.38;;;17.90;88.50;;;;;;5030824;28;20029;-83
2022/07/28 07:23:57;;;;;;;6.13;2.03;;;17.90;88.40;;;;;;5030958;28;20049;-84
2022/07/28 07:26:23;;;;;;;7.00;1.63;;;18.00;88.30;;;;;;5030704;28;20099;-84
2022/07/28 07:28:49;;;;;;;5.10;1.50;;;17.90;88.10;;;;;;5030721;28;20121;-84
2022/07/28 07:31:15;;;;;;;5.75;1.85;;;18.00;88.10;;;;;;5031122;28;20104;-84
2022/07/28 07:33:41;;;;;;;6.82;1.90;;;18.00;88.40;;;;;;5030651;28;20497;-84
2022/07/28 07:36:06;;;;;;;7.13;2.10;;;18.10;87.80;;;;;;5030452;28;20474;-84
2022/07/28 07:38:32;;;;;;;4.53;1.83;;;18.10;87.60;;;;;;5012926;28;20033;-84
2022/07/28 07:40:59;;;;;;;5.50;1.83;;;18.10;87.90;;;;;;5030649;28;20030;-84
2022/07/28 07:43:26;;;;;;;6.30;1.90;;;18.20;88.20;;;;;;5013043;28;20209;-84
2022/07/28 07:45:52;;;;;;;6.47;2.45;;;18.20;88.20;;;;;;5030428;28;20083;-84
2022/07/28 07:48:17;;;;;;;7.15;2.45;;;18.30;87.90;;;;;;5030478;28;20033;-84
2022/07/28 07:50:43;;;;;;;6.25;2.00;;;18.30;87.90;;;;;;5030400;28;20026;-84
2022/07/28 07:53:09;;;;;;;4.40;2.10;;;18.30;87.50;;;;;;5030593;28;20056;-84
2022/07/28 07:55:35;;;;;;;7.45;2.20;;;18.30;87.30;;;;;;5030522;28;20082;-84
2022/07/28 07:58:01;;;;;;;4.10;1.88;;;18.30;86.90;;;;;;5012892;28;20035;-84
2022/07/28 08:00:27;;;;;;;9.27;2.83;;;18.30;87.00;;;;;;5030170;28;20032;-84
2022/07/28 08:02:53;;;;;;;7.53;1.88;;;18.30;86.90;;;;;;5030190;28;20041;-84
2022/07/28 08:05:18;;;;;;;5.97;2.30;;;18.30;87.00;;;;;;5030676;28;20033;-84
2022/07/28 08:07:44;;;;;;;7.68;1.80;;;18.30;87.10;;;;;;5030755;28;20030;-84
2022/07/28 08:10:10;;;;;;;7.30;1.92;;;18.30;87.10;;;;;;5030204;28;20482;-85
2022/07/28 08:12:36;;;;;;;4.55;1.70;;;18.30;86.60;;;;;;5012735;28;20497;-84
2022/07/28 08:15:03;;;;;;;5.60;1.80;;;18.30;87.00;;;;;;5012621;28;20521;-84
2022/07/28 08:17:29;;;;;;;5.65;1.67;;;18.40;87.10;;;;;;5030267;28;20033;-84
2022/07/28 08:19:55;;;;;;;4.80;1.58;;;18.40;87.30;;;;;;5032819;28;20426;-84
2022/07/28 08:22:20;;;;;;;6.53;1.90;;;18.40;87.00;;;;;;5016080;28;20056;-84
2022/07/28 08:24:46;;;;;;;17.17;3.28;;;18.50;86.80;;;;;;5016638;28;20486;-84
2022/07/28 08:27:12;;;;;;;21.88;3.90;;;18.50;86.60;;;;;;5033971;28;20303;-84
2022/07/28 08:29:38;;;;;;;17.30;4.15;;;18.50;86.20;;;;;;5033740;28;20029;-84
2022/07/28 08:32:04;;;;;;;6.68;2.45;;;18.60;86.50;;;;;;5033700;28;20037;-84
2022/07/28 08:34:30;;;;;;;10.48;2.15;;;18.60;86.80;;;;;;5033953;28;20079;-84
2022/07/28 08:36:57;;;;;;;4.32;1.88;;;18.70;86.30;;;;;;5033703;28;20113;-84
2022/07/28 08:39:22;;;;;;;5.97;1.40;;;18.70;85.90;;;;;;5033950;28;20048;-84
2022/07/28 08:41:58;;;;;;;7.18;1.67;;;18.80;86.20;;;;;;5033636;28;20022;-84
2022/07/28 08:44:30;;;;;;;8.63;2.10;;;18.80;85.50;;;;;;5033570;28;20035;-84
2022/07/28 08:46:57;;;;;;;6.95;2.00;;;18.90;85.10;;;;;;5033542;28;20028;-85
2022/07/28 08:49:23;;;;;;;5.78;1.80;;;18.90;85.00;;;;;;5033556;28;20417;-85
2022/07/28 08:51:51;;;;;;;5.25;1.63;;;18.90;84.80;;;;;;5033608;28;20021;-85
2022/07/28 08:54:21;;;;;;;4.80;1.53;;;19.00;84.70;;;;;;5033421;28;20094;-84
2022/07/28 08:56:48;;;;;;;4.85;1.60;;;19.00;84.70;;;;;;5015463;28;20033;-84
2022/07/28 08:59:14;;;;;;;6.05;1.67;;;19.10;84.80;;;;;;5033147;28;20398;-85
2022/07/28 09:01:40;;;;;;;6.97;1.80;;;19.10;85.00;;;;;;5033263;28;20026;-85
2022/07/28 09:04:09;;;;;;;7.90;1.50;;;19.20;84.60;;;;;;5033564;28;20107;-85
2022/07/28 09:06:41;;;;;;;5.03;1.42;;;19.20;84.20;;;;;;5033259;28;20526;-85
2022/07/28 09:09:10;;;;;;;5.75;1.80;;;19.30;84.20;;;;;;5032942;28;20022;-85
2022/07/28 09:11:37;;;;;;;4.80;1.20;;;19.30;84.40;;;;;;5015598;28;20118;-85
2022/07/28 09:14:03;;;;;;;5.85;1.45;;;19.30;83.40;;;;;;5033265;28;20466;-85
2022/07/28 09:16:29;;;;;;;3.75;1.35;;;19.40;83.10;;;;;;5015057;28;20065;-85
2022/07/28 09:18:55;;;;;;;4.50;1.92;;;19.40;83.50;;;;;;5032918;28;20410;-85
2022/07/28 09:21:21;;;;;;;4.80;1.20;;;19.50;81.90;;;;;;5015002;28;20033;-84
2022/07/28 09:23:48;;;;;;;6.78;1.60;;;19.40;82.10;;;;;;5032653;28;20035;-85
2022/07/28 09:26:17;;;;;;;4.53;1.40;;;19.40;82.40;;;;;;5033128;28;20029;-84
2022/07/28 09:28:49;;;;;;;5.43;1.60;;;19.40;82.40;;;;;;5015114;28;20509;-84
2022/07/28 09:31:16;;;;;;;7.60;1.48;;;19.50;82.30;;;;;;5032478;28;20025;-85
2022/07/28 09:33:53;;;;;;;5.28;1.48;;;19.60;81.60;;;;;;5014865;28;20037;-85
2022/07/28 09:36:19;;;;;;;8.52;1.85;;;19.60;81.70;;;;;;5032503;28;20033;-85
2022/07/28 09:38:46;;;;;;;4.80;1.33;;;19.60;81.50;;;;;;5014716;28;20529;-85
2022/07/28 09:41:13;;;;;;;5.97;2.03;;;19.60;81.30;;;;;;5032531;28;20466;-84
2022/07/28 09:43:43;;;;;;;6.75;2.10;;;19.60;81.10;;;;;;4998529;28;20466;-84
2022/07/28 09:46:12;;;;;;;6.43;1.60;;;19.70;80.80;;;;;;5032425;28;20410;-84
2022/07/28 09:48:49;;;;;;;5.85;1.38;;;19.70;80.20;;;;;;5014671;28;20064;-84
2022/07/28 09:51:25;;;;;;;6.20;1.60;;;19.70;81.60;;;;;;5014642;28;20029;-84
2022/07/28 09:53:52;;;;;;;3.35;1.40;;;19.70;80.90;;;;;;5032418;28;20040;-85
2022/07/28 09:56:18;;;;;;;4.22;1.30;;;19.70;80.30;;;;;;5014366;28;20034;-85
2022/07/28 09:58:55;;;;;;;5.22;1.20;;;19.70;80.20;;;;;;5014402;28;20033;-85
2022/07/28 10:01:21;;;;;;;3.58;1.20;;;19.80;79.80;;;;;;4997908;28;20435;-85
2022/07/28 10:03:56;;;;;;;4.93;1.92;;;19.80;79.50;;;;;;5014559;28;20261;-85
2022/07/28 10:06:28;;;;;;;4.43;1.50;;;19.80;79.80;;;;;;5032256;28;20436;-85
2022/07/28 10:08:56;;;;;;;5.38;1.70;;;19.90;80.50;;;;;;5014080;28;20035;-85
2022/07/28 10:11:25;;;;;;;6.10;1.95;;;19.90;80.10;;;;;;5032116;28;20118;-84
2022/07/28 10:13:54;;;;;;;3.58;1.40;;;19.80;80.00;;;;;;5031848;28;20025;-85
2022/07/28 10:16:20;;;;;;;5.60;1.40;;;19.90;79.60;;;;;;5031714;28;20087;-85
2022/07/28 10:18:46;;;;;;;5.57;1.20;;;19.90;79.80;;;;;;5031620;28;20053;-85
2022/07/28 10:21:15;;;;;;;6.10;1.10;;;20.00;79.70;;;;;;5013964;28;20033;-85
2022/07/28 10:23:49;;;;;;;3.08;1.45;;;20.00;78.90;;;;;;5013914;28;20034;-85
2022/07/28 10:26:16;;;;;;;3.92;1.38;;;20.00;78.50;;;;;;5013766;28;20026;-85
2022/07/28 10:28:47;;;;;;;3.92;1.33;;;20.00;78.80;;;;;;5031476;28;20504;-85
2022/07/28 10:31:34;;;;;;;6.47;1.98;;;20.00;79.30;;;;;;5031646;28;20512;-84
2022/07/28 10:34:02;;;;;;;3.53;1.17;;;20.00;79.00;;;;;;5031770;28;20158;-85
2022/07/28 10:36:31;;;;;;;5.72;1.17;;;20.10;78.80;;;;;;5031443;28;20026;-85
2022/07/28 10:39:14;;;;;;;3.85;1.13;;;20.10;78.60;;;;;;5031410;28;20022;-85
2022/07/28 10:41:41;;;;;;;3.60;1.15;;;20.10;78.50;;;;;;5030693;28;20113;-85
2022/07/28 10:44:12;;;;;;;3.78;1.60;;;20.20;77.70;;;;;;5013598;28;20131;-84
2022/07/28 10:46:40;;;;;;;6.18;1.70;;;20.20;77.70;;;;;;5031243;28;20069;-84
2022/07/28 10:49:07;;;;;;;5.88;1.55;;;20.20;78.90;;;;;;5013340;28;20056;-85
2022/07/28 10:51:33;;;;;;;3.90;1.77;;;20.30;78.30;;;;;;5031190;28;20437;-85
2022/07/28 10:54:07;;;;;;;2.67;1.60;;;20.40;77.60;;;;;;5031246;28;20079;-84
2022/07/28 10:56:38;;;;;;;3.58;1.30;;;20.40;77.90;;;;;;5031235;28;20036;-85
2022/07/28 10:59:30;;;;;;;3.97;1.30;;;20.40;77.50;;;;;;5013287;28;20169;-85
2022/07/28 11:01:55;;;;;;;3.95;1.00;;;20.50;78.20;;;;;;5030638;28;20033;-84
2022/07/28 11:04:40;;;;;;;3.97;1.40;;;20.50;77.70;;;;;;5031282;28;20025;-84
2022/07/28 11:07:13;;;;;;;4.40;1.50;;;20.50;77.30;;;;;;4996838;28;20037;-85
2022/07/28 11:09:39;;;;;;;4.47;1.40;;;20.60;77.30;;;;;;5030815;28;20038;-85
2022/07/28 11:12:06;;;;;;;9.02;1.70;;;20.60;77.10;;;;;;5030884;28;20033;-85
2022/07/28 11:14:36;;;;;;;3.97;1.20;;;20.60;76.70;;;;;;5013648;28;20026;-85
2022/07/28 11:17:05;;;;;;;5.25;1.60;;;20.70;76.50;;;;;;5030750;28;20052;-85
2022/07/28 11:19:50;;;;;;;4.90;1.30;;;20.70;77.10;;;;;;5013094;28;20036;-85
2022/07/28 11:22:20;;;;;;;7.25;1.60;;;20.70;77.60;;;;;;5013029;28;20041;-85
2022/07/28 11:25:04;;;;;;;5.10;1.38;;;20.70;76.40;;;;;;5030848;28;20502;-85
2022/07/28 11:27:42;;;;;;;5.88;1.60;;;20.80;75.60;;;;;;5030625;28;20036;-85
2022/07/28 11:30:09;;;;;;;5.93;1.50;;;20.80;75.70;;;;;;5030977;28;20425;-85
2022/07/28 11:32:59;;;;;;;4.78;1.40;;;20.90;75.40;;;;;;5013104;28;20037;-84
2022/07/28 11:35:26;;;;;;;6.80;1.33;;;21.00;75.20;;;;;;5020526;28;20088;-84
2022/07/28 11:38:00;;;;;;;4.75;1.30;;;21.10;74.40;;;;;;5030631;28;20029;-85
2022/07/28 11:40:37;;;;;;;4.57;1.45;;;21.10;74.90;;;;;;4996237;28;20037;-84
2022/07/28 11:43:30;;;;;;;5.32;1.90;;;21.10;75.10;;;;;;5030491;28;20037;-85
2022/07/28 11:46:05;;;;;;;4.18;1.20;;;21.10;75.60;;;;;;5013027;28;20039;-84
2022/07/28 11:48:32;;;;;;;3.20;1.08;;;21.10;75.60;;;;;;5030500;28;20076;-85
2022/07/28 11:51:03;;;;;;;2.38;1.02;;;21.00;74.40;;;;;;5012702;28;20033;-85
2022/07/28 11:54:02;;;;;;;6.82;1.73;;;21.00;74.20;;;;;;5015217;28;20033;-85
2022/07/28 11:56:31;;;;;;;5.93;1.20;;;21.10;73.50;;;;;;4990443;28;20046;-85
2022/07/28 11:59:02;;;;;;;3.80;1.50;;;21.10;73.90;;;;;;5016782;28;20475;-85
2022/07/28 12:01:29;;;;;;;5.53;1.20;;;21.10;74.00;;;;;;5034437;28;20049;-85
2022/07/28 12:03:57;;;;;;;5.25;1.15;;;21.20;74.00;;;;;;5034357;28;20075;-85
2022/07/28 12:06:25;;;;;;;3.58;1.40;;;21.20;73.40;;;;;;5034120;28;20045;-85
2022/07/28 12:08:56;;;;;;;3.80;1.58;;;21.20;73.70;;;;;;5034152;28;20067;-85
2022/07/28 12:11:26;;;;;;;9.52;2.70;;;21.20;73.70;;;;;;5034256;28;20025;-85
2022/07/28 12:14:17;;;;;;;3.95;1.60;;;21.20;73.40;;;;;;5034194;28;20096;-85
2022/07/28 12:16:44;;;;;;;4.63;1.50;;;21.20;73.80;;;;;;5030311;28;20045;-85
2022/07/28 12:19:14;;;;;;;4.20;1.67;;;21.20;73.40;;;;;;5033983;28;20029;-85
2022/07/28 12:21:50;;;;;;;5.45;1.52;;;21.20;73.80;;;;;;5016301;28;20382;-85
2022/07/28 12:24:18;;;;;;;3.05;1.33;;;21.30;74.10;;;;;;5030516;22;20049;-86
2022/07/28 12:26:44;;;;;;;6.45;1.40;;;21.30;73.20;;;;;;5034103;28;20036;-86
2022/07/28 12:29:12;;;;;;;3.90;1.20;;;21.30;73.20;;;;;;4999883;28;20026;-86
2022/07/28 12:31:40;;;;;;;9.07;1.57;;;21.30;73.60;;;;;;5034015;28;20025;-86
2022/07/28 12:34:08;;;;;;;8.88;1.42;;;21.40;73.20;;;;;;5034160;28;20041;-86
2022/07/28 12:36:35;;;;;;;5.00;1.33;;;21.40;72.90;;;;;;5033863;28;20033;-86
2022/07/28 12:39:04;;;;;;;2.92;1.27;;;21.40;73.00;;;;;;5033701;28;20086;-86
2022/07/28 12:41:32;;;;;;;5.55;1.50;;;21.50;72.80;;;;;;5033687;28;20042;-86
2022/07/28 12:43:59;;;;;;;2.90;1.38;;;21.60;73.10;;;;;;5015958;28;20528;-86
2022/07/28 12:46:27;;;;;;;4.18;1.50;;;21.70;72.40;;;;;;5015757;28;20052;-87
2022/07/28 12:48:56;;;;;;;3.97;1.40;;;21.90;72.50;;;;;;5033532;28;20025;-87
2022/07/28 12:51:48;;;;;;;4.35;1.60;;;21.90;72.90;;;;;;5033530;28;20272;-86
2022/07/28 12:54:14;;;;;;;3.53;1.23;;;21.90;73.10;;;;;;5012191;28;20095;-86
2022/07/28 12:56:49;;;;;;;3.38;1.13;;;22.00;72.80;;;;;;5015750;28;20125;-86
2022/07/28 12:59:19;;;;;;;4.90;1.67;;;22.00;72.40;;;;;;5015831;28;20077;-86